Charter Quote
Worldwide +1-877-727-2538 Call
Select Language Lang
SAFETY RELIABILITY EXPERIENCE

Private Jet Charter Services - Meixian Airport (ZGMX)

Paramount Business Jets offers private jet charter flights and luxury airliner charters to and from Meixian Airport.

AIRPORT INFORMATION
ICAOZGMX
IATAMXZ
LOCATIONMeixian, China
FACILITY TYPEAIRPORT

At Paramount Business Jets you can hire chartered private jets to and from Meixian Airport with as little as 4 hours of notice. All flights booked via Paramount Business Jets are operated by certified direct air carriers that meet and exceed the FAA part 135 and 121 protocol or a foreign equivalent safety authority. Furthermore, Paramount Business Jets subscribes to ARGUS for their third party safety checks of operators, aircraft, and crews prior each and every flight to and from Meixian Airport and worldwide.

  • Quote a trip using Meixian Airport or call us 24/7 - 365 days a year at +1-877-727-2538.
Questions? Call +1-877-727-2538

METAR Weather Data at Meixian Airport, ZGMX, MXZ

STATIONZGMX
OBSERVEDMon Sep 8, 14:00 UTC
NOWMon Jul 22, 10:08 UTC
AGE42668:08 hr ago
WINDSSW at 4 mph
VISIBILITYgreater than 7 miles
CLOUDSclear skies
TEMP81°F (27°C)
DEWPT77°F (25°C)
HUMIDITY89%
HEAT INDEX88°F (31°C)
BAROMETER1008 hPa (29.77 in Hg)
METARZGMX 081400Z 20002MPS CAVOK 27/25 Q1008 NOSIG

Call us on +1-877-727-2538 (24 Hours) to Hire a Private Jet or Get a Quick Quote.

Find Airports Near any Location

Processing
...